Time;durP1;ratioP1;P1;durP2;ratioP2;P2;SDS_P1;SDS_P2;PMS_P1;PMS_P2;Temp;Humidity;BMP_temperature;BMP_pressure;BME280_temperature;BME280_humidity;BME280_pressure;Samples;Min_cycle;Max_cycle;Signal;HPM_P1;HPM_P2
2022/11/11 00:00:25;;;;;;;;;16.33;14.00;;;;;12.30;70.70;102570.81;4977180;28;45480;-70
2022/11/11 00:02:50;;;;;;;;;11.00;9.67;;;;;12.30;70.40;102552.16;4977204;28;45442;-71
2022/11/11 00:05:16;;;;;;;;;14.00;14.00;;;;;12.24;71.11;102554.41;4977650;28;47515;-72
2022/11/11 00:07:42;;;;;;;;;14.67;12.33;;;;;12.02;70.70;102507.97;4981473;28;46071;-70
2022/11/11 00:10:08;;;;;;;;;12.00;12.00;;;;;11.82;70.73;102479.22;4995858;28;45845;-72
2022/11/11 00:12:33;;;;;;;;;11.67;10.67;;;;;11.99;70.72;102494.00;4981054;28;45430;-70
2022/11/11 00:14:59;;;;;;;;;12.33;12.00;;;;;11.99;70.89;102494.00;4980814;28;45365;-71
2022/11/11 00:25:39;;;;;;;;;14.33;14.00;;;;;11.47;70.70;102385.81;4980374;28;45328;-71
2022/11/11 00:28:05;;;;;;;;;12.67;12.67;;;;;12.36;70.50;102543.69;4979799;28;45835;-71
2022/11/11 00:30:30;;;;;;;;;10.33;9.67;;;;;12.13;70.21;102500.03;4979766;28;45572;-69
2022/11/11 00:32:56;;;;;;;;;12.67;11.00;;;;;12.28;70.06;102540.75;4979794;28;47346;-71
2022/11/11 00:38:44;;;;;;;;;12.00;10.33;;;;;12.05;70.62;102522.91;4979540;28;45971;-70
2022/11/11 00:40:56;;;;;;;;;10.33;9.67;;;;;12.10;70.95;102515.41;4977913;28;45514;-70
2022/11/11 00:43:22;;;;;;;;;13.00;12.00;;;;;12.20;71.00;102548.44;4979479;28;45438;-68
2022/11/11 00:45:47;;;;;;;;;14.33;12.00;;;;;12.12;70.68;102545.47;4980604;28;45409;-71
2022/11/11 00:50:59;;;;;;;;;7.33;7.33;;;;;12.26;70.67;102561.34;4980841;28;45428;-70
2022/11/11 00:53:27;;;;;;;;;9.00;9.00;;;;;12.18;70.85;102555.69;4982874;28;45246;-70
2022/11/11 00:55:54;;;;;;;;;10.00;10.00;;;;;12.21;70.56;102549.28;4980500;28;45392;-71
2022/11/11 00:58:19;;;;;;;;;12.33;10.33;;;;;12.26;70.21;102574.69;4979248;28;45994;-70
2022/11/11 01:00:44;;;;;;;;;12.67;11.00;;;;;12.30;70.31;102573.50;4979317;28;45492;-71
2022/11/11 01:03:10;;;;;;;;;13.33;10.67;;;;;12.38;69.89;102587.09;4979431;28;45377;-71
2022/11/11 01:05:38;;;;;;;;;12.67;11.33;;;;;11.10;69.47;102374.25;4979015;28;48058;-71
2022/11/11 01:08:04;;;;;;;;;10.33;8.33;;;;;12.05;70.14;102554.88;4978955;28;46475;-69
2022/11/11 01:10:40;;;;;;;;;11.67;10.00;;;;;12.09;70.46;102567.88;4978629;28;45487;-69
2022/11/11 01:13:19;;;;;;;;;10.00;10.00;;;;;12.01;70.40;102548.91;4979146;28;45461;-71
2022/11/11 01:15:47;;;;;;;;;11.00;9.33;;;;;11.24;70.46;102417.59;4978040;28;45527;-71
2022/11/11 01:18:14;;;;;;;;;13.67;11.00;;;;;11.49;70.57;102442.47;4978062;28;46155;-71
2022/11/11 01:20:41;;;;;;;;;10.67;9.00;;;;;12.14;70.17;102556.88;4979041;28;45271;-71
2022/11/11 01:23:07;;;;;;;;;15.00;13.00;;;;;12.12;70.44;102556.13;4979142;28;45504;-70
2022/11/11 01:25:37;;;;;;;;;13.67;12.33;;;;;12.08;70.84;102554.66;4977908;28;45593;-70
2022/11/11 01:28:04;;;;;;;;;12.33;11.33;;;;;12.11;70.76;102554.44;4978695;28;46235;-71
2022/11/11 01:30:31;;;;;;;;;15.33;14.33;;;;;11.99;70.59;102539.31;4978978;28;45236;-69
2022/11/11 01:32:57;;;;;;;;;13.67;13.33;;;;;12.08;70.65;102541.34;4978775;28;45345;-69
2022/11/11 01:35:23;;;;;;;;;13.00;10.00;;;;;12.21;70.28;102549.28;4993854;28;45557;-71
2022/11/11 01:37:48;;;;;;;;;7.33;7.33;;;;;12.14;70.04;102540.88;4993516;28;47470;-71
2022/11/11 01:40:13;;;;;;;;;11.33;10.67;;;;;12.03;69.98;102515.00;4978735;28;45385;-68
2022/11/11 01:42:46;;;;;;;;;13.67;11.67;;;;;11.91;70.04;102520.34;4977857;28;46032;-71
2022/11/11 01:45:46;;;;;;;;;14.33;12.67;;;;;12.08;70.04;102560.00;4979238;28;45535;-70
2022/11/11 01:51:24;;;;;;;;;11.33;11.33;;;;;12.02;70.27;102563.97;4978855;28;45413;-70
2022/11/11 01:53:55;;;;;;;;;11.33;11.00;;;;;12.00;70.43;102557.00;4978910;28;45566;-69
2022/11/11 01:56:21;;;;;;;;;12.67;11.00;;;;;12.12;70.05;102567.66;4980492;28;45365;-70
2022/11/11 01:58:48;;;;;;;;;10.00;8.67;;;;;11.99;70.06;102544.63;4977446;28;48649;-69
2022/11/11 02:01:13;;;;;;;;;11.33;9.67;;;;;12.18;69.63;102566.34;4978403;28;45372;-68
2022/11/11 02:03:40;;;;;;;;;13.00;11.00;;;;;12.28;69.60;102583.41;4978340;28;45309;-68
2022/11/11 02:06:06;;;;;;;;;10.33;9.00;;;;;12.29;69.67;102573.59;4978586;28;45432;-70
2022/11/11 02:08:35;;;;;;;;;11.33;11.33;;;;;12.18;69.52;102577.03;4977736;28;45528;-70
2022/11/11 02:11:15;;;;;;;;;10.00;10.00;;;;;12.26;69.96;102579.16;4977850;28;45405;-70
2022/11/11 02:16:27;;;;;;;;;10.00;10.00;;;;;12.15;69.81;102567.44;4978436;28;45393;-72
2022/11/11 02:18:53;;;;;;;;;11.00;11.00;;;;;12.15;69.46;102558.59;4977588;28;45620;-70
2022/11/11 02:21:37;;;;;;;;;14.00;12.00;;;;;12.05;69.60;102522.91;4978258;28;45297;-71
2022/11/11 02:24:03;;;;;;;;;10.00;10.00;;;;;12.26;69.46;102560.50;4993556;28;45524;-70
2022/11/11 02:26:32;;;;;;;;;13.33;9.33;;;;;12.27;69.58;102564.88;4978902;28;45234;-71
2022/11/11 02:28:58;;;;;;;;;10.33;10.00;;;;;12.08;68.69;102530.66;4981418;28;46173;-69
2022/11/11 02:31:27;;;;;;;;;11.00;9.33;;;;;12.36;69.11;102566.84;4979620;28;45316;-70
2022/11/11 02:33:53;;;;;;;;;11.33;10.33;;;;;11.85;69.08;102482.53;4977828;28;45227;-69
2022/11/11 02:36:18;;;;;;;;;11.33;10.00;;;;;12.38;68.64;102565.78;4978122;28;45255;-70
2022/11/11 02:38:44;;;;;;;;;12.33;11.33;;;;;11.77;68.63;102471.50;4977488;28;46604;-70
2022/11/11 02:43:53;;;;;;;;;11.67;10.67;;;;;12.24;69.23;102555.28;4977925;28;45769;-70
2022/11/11 02:46:19;;;;;;;;;14.33;13.00;;;;;12.30;69.32;102569.97;4976980;28;45179;-70
2022/11/11 02:48:44;;;;;;;;;13.33;11.67;;;;;12.24;69.34;102557.09;4976725;28;48009;-68
2022/11/11 02:51:09;;;;;;;;;13.00;13.00;;;;;11.43;69.02;102448.25;4977806;28;45334;-70
2022/11/11 02:53:35;;;;;;;;;15.00;12.00;;;;;11.77;69.94;102510.63;4977978;28;45235;-69
2022/11/11 02:56:00;;;;;;;;;12.67;11.00;;;;;11.76;69.76;102515.09;4977850;28;45232;-71
2022/11/11 02:58:25;;;;;;;;;13.00;11.00;;;;;11.77;69.35;102524.81;4977297;28;46143;-69
2022/11/11 03:00:51;;;;;;;;;12.33;12.00;;;;;11.99;70.08;102563.28;4977585;28;45434;-71
2022/11/11 03:03:16;;;;;;;;;11.33;10.00;;;;;11.54;70.19;102491.78;4977184;28;58286;-69
2022/11/11 03:05:41;;;;;;;;;11.00;11.00;;;;;12.00;69.91;102575.66;4977727;28;45354;-69
2022/11/11 03:08:07;;;;;;;;;9.00;8.33;;;;;12.00;69.66;102565.00;4977097;28;45973;-70
2022/11/11 03:10:32;;;;;;;;;12.33;12.00;;;;;11.97;69.81;102535.91;4977287;28;45496;-69
2022/11/11 03:12:57;;;;;;;;;10.00;10.00;;;;;12.11;69.04;102554.44;4977499;28;45310;-68
2022/11/11 03:15:23;;;;;;;;;15.00;11.67;;;;;12.17;69.18;102554.00;4977584;28;45329;-70
2022/11/11 03:17:48;;;;;;;;;13.00;12.00;;;;;11.90;69.06;102503.50;4977130;28;45892;-69
2022/11/11 03:23:05;;;;;;;;;17.00;13.33;;;;;12.03;68.84;102551.47;4977411;28;45353;-69
2022/11/11 03:25:36;;;;;;;;;13.67;13.67;;;;;12.02;68.82;102557.78;4977419;28;45246;-69
2022/11/11 03:28:08;;;;;;;;;12.00;12.00;;;;;11.78;69.23;102534.53;4977053;28;46924;-68
2022/11/11 03:30:34;;;;;;;;;10.33;9.33;;;;;11.93;68.91;102532.59;4992190;28;45498;-68
2022/11/11 03:33:00;;;;;;;;;12.33;10.00;;;;;11.99;68.76;102549.97;4977150;28;45295;-69
2022/11/11 03:35:25;;;;;;;;;13.67;12.33;;;;;11.72;69.08;102518.97;4977609;28;45445;-71
2022/11/11 03:40:35;;;;;;;;;16.00;12.67;;;;;11.67;69.27;102514.91;4976847;28;45282;-71
2022/11/11 03:43:00;;;;;;;;;11.67;11.67;;;;;11.76;69.06;102535.56;4980070;28;45631;-69
2022/11/11 03:45:26;;;;;;;;;11.33;11.33;;;;;11.62;69.43;102531.25;4980685;28;45290;-70
2022/11/11 03:47:53;;;;;;;;;9.67;8.00;;;;;11.13;69.68;102454.72;4980333;28;46591;-72
2022/11/11 03:50:19;;;;;;;;;10.33;10.00;;;;;11.62;69.30;102541.88;4980323;28;45439;-68
2022/11/11 03:52:45;;;;;;;;;7.00;7.00;;;;;11.73;69.65;102557.97;4980712;28;45258;-68
2022/11/11 03:55:11;;;;;;;;;10.33;7.67;;;;;11.74;68.88;102554.34;4980409;28;45528;-72
2022/11/11 03:57:40;;;;;;;;;15.67;13.00;;;;;11.80;69.22;102561.94;4980372;28;46354;-71
2022/11/11 04:00:07;;;;;;;;;7.00;7.00;;;;;11.67;69.64;102547.75;4980536;28;45413;-69
2022/11/11 04:10:43;;;;;;;;;12.00;12.00;;;;;11.69;70.25;102569.81;4979963;28;45436;-68
2022/11/11 04:16:04;;;;;;;;;11.00;10.00;;;;;11.78;70.41;102590.50;4980331;28;45360;-69
2022/11/11 04:23:58;;;;;;;;;13.33;11.00;;;;;11.85;70.00;102593.59;4981039;28;45436;-70
2022/11/11 04:26:23;;;;;;;;;12.00;11.00;;;;;11.86;69.76;102592.66;4980028;28;45297;-70
2022/11/11 04:31:32;;;;;;;;;9.67;8.67;;;;;11.87;69.63;102587.22;4981813;28;45449;-70
2022/11/11 04:33:58;;;;;;;;;11.33;11.00;;;;;11.88;70.23;102578.25;4979791;28;47321;-70
2022/11/11 04:36:23;;;;;;;;;15.00;14.00;;;;;11.34;70.01;102486.16;4982910;28;45506;-69
2022/11/11 04:41:32;;;;;;;;;11.33;9.33;;;;;11.67;70.05;102553.06;4979693;28;45358;-72
2022/11/11 04:46:41;;;;;;;;;9.67;9.00;;;;;11.78;70.77;102570.97;4980105;28;45515;-68
2022/11/11 04:49:07;;;;;;;;;11.33;8.33;;;;;11.83;70.55;102572.41;4994710;28;46943;-69
2022/11/11 04:54:15;;;;;;;;;10.67;9.00;;;;;11.86;70.69;102580.19;4979925;28;45296;-70
2022/11/11 04:56:48;;;;;;;;;13.33;9.33;;;;;11.85;70.60;102575.81;4977963;28;58122;-70
2022/11/11 04:59:17;;;;;;;;;8.67;8.67;;;;;11.87;71.03;102573.88;4977896;28;47337;-70
2022/11/11 05:04:26;;;;;;;;;8.67;8.67;;;;;11.84;70.79;102571.44;4981216;28;45404;-70
2022/11/11 05:09:36;;;;;;;;;9.00;9.00;;;;;11.31;70.91;102473.06;4978569;28;45417;-70
2022/11/11 05:12:01;;;;;;;;;10.00;7.00;;;;;11.38;70.71;102491.16;4978913;28;45485;-70
2022/11/11 05:22:40;;;;;;;;;13.67;13.67;;;;;11.82;70.58;102576.03;4959457;28;45545;-70
2022/11/11 05:25:25;;;;;;;;;15.67;14.33;;;;;11.80;71.09;102583.25;4974694;28;45233;-69
2022/11/11 05:27:54;;;;;;;;;15.67;13.67;;;;;11.72;70.66;102548.25;4974534;28;45200;-69
2022/11/11 05:30:21;;;;;;;;;16.33;11.00;;;;;11.80;70.40;102567.25;4974114;28;47811;-69
2022/11/11 05:32:47;;;;;;;;;12.67;12.33;;;;;11.75;70.55;102557.84;4959028;28;45336;-69
2022/11/11 05:35:13;;;;;;;;;13.00;10.33;;;;;11.70;70.51;102534.19;4959331;28;45569;-69
2022/11/11 05:37:39;;;;;;;;;11.00;10.67;;;;;11.58;70.49;102529.72;4960062;28;45529;-69
2022/11/11 05:40:05;;;;;;;;;13.33;12.00;;;;;11.73;69.97;102559.78;4993590;28;48813;-70
2022/11/11 05:42:30;;;;;;;;;11.00;9.33;;;;;11.65;70.04;102556.81;4978633;28;45338;-70
2022/11/11 05:44:56;;;;;;;;;10.33;9.33;;;;;11.86;69.79;102579.31;4978687;28;45252;-70
2022/11/11 05:47:21;;;;;;;;;10.33;9.33;;;;;11.94;70.10;102578.78;4993746;28;45545;-70
2022/11/11 05:49:47;;;;;;;;;13.33;10.00;;;;;11.75;69.57;102542.72;4978550;28;46515;-69
2022/11/11 05:52:15;;;;;;;;;10.33;9.67;;;;;11.15;69.44;102468.78;4978504;28;45496;-70
2022/11/11 05:54:40;;;;;;;;;12.00;10.00;;;;;11.42;69.59;102529.09;4978912;28;45304;-70
2022/11/11 05:57:05;;;;;;;;;11.00;11.00;;;;;11.58;69.94;102551.03;4978746;28;45504;-70
2022/11/11 05:59:31;;;;;;;;;8.00;6.00;;;;;11.24;69.96;102486.81;4978165;28;46491;-70
2022/11/11 06:01:56;;;;;;;;;11.67;8.67;;;;;11.55;69.41;102536.13;4978230;28;45504;-70
2022/11/11 06:04:22;;;;;;;;;7.67;6.67;;;;;11.72;69.43;102566.91;4977085;28;45303;-72
2022/11/11 06:06:47;;;;;;;;;9.33;9.00;;;;;11.66;69.85;102564.69;4977275;28;45283;-71
2022/11/11 06:09:12;;;;;;;;;9.00;9.00;;;;;11.74;69.45;102573.00;4977825;28;46053;-71
2022/11/11 06:11:38;;;;;;;;;10.67;9.33;;;;;11.75;69.75;102574.69;4977718;28;45446;-70
2022/11/11 06:14:04;;;;;;;;;9.00;8.67;;;;;11.52;69.59;102546.13;4978538;28;45175;-69
2022/11/11 06:16:29;;;;;;;;;9.67;7.00;;;;;10.75;69.37;102421.91;4978578;28;45163;-70
2022/11/11 06:18:55;;;;;;;;;9.00;7.00;;;;;11.59;69.64;102556.25;4977812;28;47776;-70
2022/11/11 06:21:20;;;;;;;;;7.33;7.33;;;;;10.91;69.54;102465.16;4978328;28;45437;-70
2022/11/11 06:23:46;;;;;;;;;6.33;6.33;;;;;11.49;69.62;102579.16;4993319;28;45567;-70
2022/11/11 06:26:12;;;;;;;;;7.00;7.00;;;;;10.89;69.48;102459.94;4978212;28;45281;-71
2022/11/11 06:28:44;;;;;;;;;9.33;8.00;;;;;11.66;69.00;102596.66;4977958;28;46290;-70
2022/11/11 06:31:12;;;;;;;;;7.33;7.33;;;;;11.54;69.96;102592.16;4978088;28;46076;-69
2022/11/11 06:33:38;;;;;;;;;8.67;8.67;;;;;11.18;70.02;102531.63;4978224;28;45416;-70
2022/11/11 06:36:04;;;;;;;;;8.00;8.00;;;;;11.57;69.82;102594.63;4979093;28;45321;-69
2022/11/11 06:38:30;;;;;;;;;10.00;9.33;;;;;11.60;69.70;102605.06;4977677;28;46216;-71
2022/11/11 06:40:56;;;;;;;;;7.00;5.00;;;;;11.22;69.93;102544.63;4977527;28;45300;-70
2022/11/11 06:43:21;;;;;;;;;8.00;8.00;;;;;11.57;70.24;102584.81;4978053;28;45390;-72
2022/11/11 06:45:53;;;;;;;;;5.00;5.00;;;;;10.15;69.57;102347.94;4978265;28;45375;-69
2022/11/11 06:48:19;;;;;;;;;8.67;7.67;;;;;11.59;70.03;102606.00;4977566;28;46450;-70
2022/11/11 06:50:45;;;;;;;;;7.33;6.00;;;;;11.50;70.74;102626.16;4992755;28;45615;-71
2022/11/11 06:53:13;;;;;;;;;7.67;6.00;;;;;11.07;70.76;102558.97;4977928;28;45481;-70
2022/11/11 06:55:39;;;;;;;;;8.67;7.00;;;;;11.46;70.44;102621.16;4978345;28;45278;-70
2022/11/11 06:58:09;;;;;;;;;8.00;7.00;;;;;11.38;71.12;102620.78;4977382;28;46394;-71
2022/11/11 07:00:36;;;;;;;;;8.00;7.33;;;;;11.47;71.37;102633.50;4976064;28;46009;-71
2022/11/11 07:03:03;;;;;;;;;10.00;9.00;;;;;11.34;70.78;102598.00;4976133;28;45265;-70
2022/11/11 07:05:28;;;;;;;;;8.33;7.00;;;;;11.04;70.70;102542.34;4977813;28;45286;-70
2022/11/11 07:07:53;;;;;;;;;6.00;6.00;;;;;11.42;70.89;102615.19;4976724;28;62345;-71
2022/11/11 07:10:19;;;;;;;;;13.00;9.00;;;;;11.50;70.53;102620.81;4977620;28;45547;-71
2022/11/11 07:12:45;;;;;;;;;10.33;8.33;;;;;11.51;71.12;102619.88;4978923;28;45363;-69
2022/11/11 07:15:10;;;;;;;;;7.33;7.00;;;;;11.39;70.88;102604.72;4977070;28;45444;-72
2022/11/11 07:17:35;;;;;;;;;13.00;10.00;;;;;11.18;71.48;102556.41;4968015;28;46288;-70
2022/11/11 07:20:01;;;;;;;;;8.33;8.00;;;;;10.94;71.09;102518.16;4970161;28;45488;-69
2022/11/11 07:22:26;;;;;;;;;7.00;7.00;;;;;11.43;71.60;102581.41;4966513;28;45278;-69
2022/11/11 07:24:52;;;;;;;;;8.67;8.67;;;;;11.63;71.30;102609.34;4971302;28;45346;-69
2022/11/11 07:27:17;;;;;;;;;11.67;7.67;;;;;11.14;70.99;102520.31;4979454;28;47677;-71
2022/11/11 07:29:43;;;;;;;;;13.33;11.00;;;;;11.30;71.06;102545.91;4979613;28;46528;-71
2022/11/11 07:32:08;;;;;;;;;10.00;9.00;;;;;11.47;70.54;102565.09;4973369;28;45327;-69
2022/11/11 07:34:33;;;;;;;;;11.00;9.00;;;;;10.73;70.88;102456.59;5000484;28;45323;-71
2022/11/11 07:36:59;;;;;;;;;13.33;10.33;;;;;10.79;70.99;102472.13;4981296;28;46685;-69
2022/11/11 07:39:24;;;;;;;;;9.00;8.00;;;;;11.62;71.34;102607.63;4981880;28;45481;-70
2022/11/11 07:41:49;;;;;;;;;10.00;9.33;;;;;11.38;71.44;102575.53;4981402;28;45464;-71
2022/11/11 07:44:15;;;;;;;;;11.00;9.67;;;;;11.53;71.53;102617.94;4996722;28;45597;-71
2022/11/11 07:46:40;;;;;;;;;11.00;9.67;;;;;11.21;71.55;102558.91;4981103;28;47807;-70
2022/11/11 07:49:05;;;;;;;;;14.67;11.00;;;;;11.25;72.08;102571.03;4980484;28;45404;-69
2022/11/11 07:51:31;;;;;;;;;11.67;10.00;;;;;11.43;71.77;102611.56;4980637;28;45330;-70
2022/11/11 07:53:56;;;;;;;;;12.33;11.67;;;;;11.21;72.13;102555.34;4980852;28;45349;-70
2022/11/11 07:56:22;;;;;;;;;10.00;8.33;;;;;11.39;71.23;102593.19;4980465;28;45462;-68
2022/11/11 07:58:47;;;;;;;;;10.00;8.00;;;;;11.46;71.65;102613.16;4995509;28;45511;-70
2022/11/11 08:01:12;;;;;;;;;11.00;9.00;;;;;11.38;71.81;102612.81;4976834;28;45479;-70
2022/11/11 08:03:48;;;;;;;;;8.50;8.50;;;;;11.43;72.28;102624.03;4979978;28;45497;-71
2022/11/11 08:06:14;;;;;;;;;11.00;10.00;;;;;11.41;71.69;102607.25;4980702;28;46518;-69
2022/11/11 08:08:40;;;;;;;;;8.67;8.67;;;;;11.41;71.03;102584.19;4979739;28;45558;-72
2022/11/11 08:11:05;;;;;;;;;9.33;9.33;;;;;11.59;71.14;102614.00;4980223;28;45495;-69
2022/11/11 08:13:40;;;;;;;;;15.00;10.00;;;;;11.55;71.19;102620.50;4979465;28;45631;-69
2022/11/11 08:16:10;;;;;;;;;10.00;9.00;;;;;11.55;71.02;102623.16;4979884;28;45858;-73
2022/11/11 08:18:35;;;;;;;;;9.00;6.50;;;;;11.39;70.91;102627.81;4978887;28;45497;-69
2022/11/11 08:21:02;;;;;;;;;8.00;8.00;;;;;11.21;71.76;102574.00;4978673;28;45484;-71
2022/11/11 08:23:33;;;;;;;;;7.33;7.00;;;;;11.41;71.61;102613.47;4979866;28;45437;-71
2022/11/11 08:26:00;;;;;;;;;10.67;10.33;;;;;11.56;71.08;102616.88;4979707;28;45911;-70
2022/11/11 08:28:27;;;;;;;;;11.00;8.67;;;;;11.65;71.16;102620.75;4979248;28;45259;-71
2022/11/11 08:30:58;;;;;;;;;9.67;8.00;;;;;11.72;71.16;102612.22;4979754;28;45533;-71
2022/11/11 08:33:24;;;;;;;;;7.67;6.67;;;;;11.80;70.70;102607.22;4978158;28;45464;-73
2022/11/11 08:35:53;;;;;;;;;9.00;6.67;;;;;10.88;70.75;102457.38;4979340;28;45495;-71
2022/11/11 08:38:20;;;;;;;;;10.00;10.00;;;;;11.82;71.12;102617.81;4979976;28;45232;-72
2022/11/11 08:40:45;;;;;;;;;14.00;12.00;;;;;11.48;70.94;102574.81;4978909;28;45321;-70
2022/11/11 08:43:11;;;;;;;;;14.00;13.00;;;;;11.17;71.09;102514.78;4979627;28;45540;-70
2022/11/11 08:45:36;;;;;;;;;7.33;7.33;;;;;11.72;70.85;102620.22;4973304;28;45627;-72
2022/11/11 08:48:02;;;;;;;;;12.67;12.00;;;;;11.65;70.67;102597.63;4978670;28;45598;-70
2022/11/11 08:50:30;;;;;;;;;14.00;11.67;;;;;11.55;71.35;102577.88;4977942;28;45438;-73
2022/11/11 08:52:56;;;;;;;;;10.00;10.00;;;;;11.73;71.24;102621.06;4978882;28;45466;-71
2022/11/11 08:55:21;;;;;;;;;11.67;11.67;;;;;10.91;70.53;102473.97;4979228;28;47581;-71
2022/11/11 08:57:47;;;;;;;;;10.00;7.00;;;;;11.30;70.84;102562.75;4979578;28;45288;-72
2022/11/11 09:00:13;;;;;;;;;8.00;7.00;;;;;11.63;70.39;102612.00;4993032;28;45383;-72
2022/11/11 09:02:39;;;;;;;;;8.33;7.00;;;;;11.71;70.95;102628.31;4966293;28;45254;-73
2022/11/11 09:05:05;;;;;;;;;11.00;9.33;;;;;11.70;70.93;102646.09;4990772;28;47471;-71
2022/11/11 09:07:31;;;;;;;;;10.00;9.00;;;;;10.89;71.26;102504.31;4960680;28;45330;-69
2022/11/11 09:09:56;;;;;;;;;8.67;8.33;;;;;11.65;70.40;102615.41;4982166;28;45458;-70
2022/11/11 09:12:22;;;;;;;;;10.67;9.00;;;;;11.79;70.53;102647.31;4979061;28;45530;-71
2022/11/11 09:14:48;;;;;;;;;8.67;8.67;;;;;11.94;70.49;102640.94;4978539;28;45850;-71
2022/11/11 09:17:15;;;;;;;;;9.33;7.67;;;;;12.06;70.16;102649.91;4980010;28;45595;-70
2022/11/11 09:19:40;;;;;;;;;8.33;7.67;;;;;12.11;70.06;102639.75;4980260;28;45301;-71
2022/11/11 09:22:06;;;;;;;;;12.00;10.00;;;;;12.17;69.66;102645.50;4994778;28;45583;-71
2022/11/11 09:24:31;;;;;;;;;12.67;11.00;;;;;11.74;69.72;102567.66;4978926;28;45845;-71
2022/11/11 09:26:57;;;;;;;;;13.00;10.00;;;;;12.02;69.30;102608.41;4978783;28;45444;-70
2022/11/11 09:29:22;;;;;;;;;11.67;9.33;;;;;12.21;69.55;102650.63;4979454;28;45266;-70
2022/11/11 09:31:47;;;;;;;;;10.33;9.00;;;;;12.19;69.35;102646.25;4978337;28;45279;-70
2022/11/11 09:34:13;;;;;;;;;16.67;13.67;;;;;11.96;69.69;102611.50;4960885;28;46507;-74
2022/11/11 09:36:39;;;;;;;;;12.67;10.33;;;;;12.02;69.45;102611.94;4958958;28;45194;-76
2022/11/11 09:39:04;;;;;;;;;12.00;11.00;;;;;12.20;69.19;102655.09;4975402;28;45504;-72
2022/11/11 09:41:48;;;;;;;;;10.67;10.00;;;;;12.21;69.67;102651.47;4961020;28;45569;-73
2022/11/11 09:44:40;;;;;;;;;12.00;11.00;;;;;12.29;69.66;102653.63;4984825;28;47228;-71
2022/11/11 09:47:36;;;;;;;;;10.67;10.67;;;;;12.26;69.34;102649.34;4979654;28;45524;-72
2022/11/11 09:50:10;;;;;;;;;12.00;11.00;;;;;12.27;69.05;102651.06;4976645;28;45618;-74
2022/11/11 09:52:51;;;;;;;;;12.67;9.33;;;;;12.26;69.23;102649.34;4976387;28;45421;-71
2022/11/11 09:55:39;;;;;;;;;14.67;14.67;;;;;12.37;68.84;102652.09;4968366;28;46837;-72
2022/11/11 09:58:11;;;;;;;;;11.33;10.67;;;;;12.38;68.71;102659.13;4966569;28;45545;-72
2022/11/11 10:00:41;;;;;;;;;12.00;12.00;;;;;12.42;68.21;102654.44;4971005;28;45567;-73
2022/11/11 10:03:16;;;;;;;;;11.33;11.00;;;;;12.48;68.36;102665.53;4977577;28;45433;-71
2022/11/11 10:05:56;;;;;;;;;10.00;10.00;;;;;11.93;68.54;102545.09;4978823;28;45623;-72
2022/11/11 10:08:28;;;;;;;;;9.33;9.33;;;;;12.63;68.27;102662.72;4978629;28;45255;-70
2022/11/11 10:10:54;;;;;;;;;14.33;12.00;;;;;12.44;67.60;102629.38;4979703;28;45316;-71
2022/11/11 10:13:29;;;;;;;;;13.33;12.33;;;;;12.25;67.67;102598.78;4979294;28;45359;-75
2022/11/11 10:16:27;;;;;;;;;8.67;8.67;;;;;12.57;67.17;102631.13;4978391;28;46657;-72
2022/11/11 10:19:04;;;;;;;;;13.33;12.00;;;;;12.81;66.75;102666.72;4978729;28;45341;-72
2022/11/11 10:21:36;;;;;;;;;9.67;9.67;;;;;10.68;66.65;102303.59;4993269;28;45446;-71
2022/11/11 10:24:10;;;;;;;;;9.67;9.67;;;;;12.66;66.61;102639.34;4993937;28;45452;-74
2022/11/11 10:26:37;;;;;;;;;9.33;9.33;;;;;12.85;66.50;102673.56;4984748;28;48183;-74
2022/11/11 10:29:11;;;;;;;;;11.33;10.33;;;;;12.80;66.64;102660.53;4972787;28;45560;-73
2022/11/11 10:31:39;;;;;;;;;13.00;12.00;;;;;12.36;66.33;102597.03;4978858;28;45269;-70
2022/11/11 10:34:10;;;;;;;;;11.00;9.00;;;;;12.64;66.54;102640.44;4976464;28;45565;-75
2022/11/11 10:36:44;;;;;;;;;12.67;11.67;;;;;12.74;66.66;102649.44;4973611;28;46448;-71
2022/11/11 10:39:16;;;;;;;;;12.00;9.67;;;;;12.55;66.61;102625.06;4975109;28;45507;-72
2022/11/11 10:41:46;;;;;;;;;11.67;9.67;;;;;12.54;66.18;102620.69;4992487;28;45527;-77
2022/11/11 10:44:24;;;;;;;;;12.33;11.33;;;;;12.28;66.28;102578.09;4978639;28;45363;-74
2022/11/11 10:47:21;;;;;;;;;12.67;12.33;;;;;12.65;65.83;102628.78;4993430;28;48285;-73
2022/11/11 10:50:06;;;;;;;;;10.33;9.67;;;;;12.84;66.10;102644.31;4992919;28;45553;-74
2022/11/11 10:52:38;;;;;;;;;10.00;10.00;;;;;12.97;65.78;102659.28;4977210;28;45572;-75
2022/11/11 10:55:06;;;;;;;;;11.67;8.00;;;;;13.06;65.85;102661.31;4976041;28;45459;-77
2022/11/11 10:57:32;;;;;;;;;11.67;10.67;;;;;12.81;65.37;102610.66;4957773;28;47696;-77
2022/11/11 11:00:13;;;;;;;;;16.33;14.00;;;;;12.75;64.65;102579.09;4977202;28;45478;-75
2022/11/11 11:02:58;;;;;;;;;15.67;14.33;;;;;12.97;65.22;102621.91;4978243;28;45421;-74
2022/11/11 11:05:45;;;;;;;;;12.00;12.00;;;;;12.91;64.65;102605.50;4978266;28;45445;-72
2022/11/11 11:08:20;;;;;;;;;12.67;11.33;;;;;12.99;64.24;102603.97;4977087;28;46335;-74
2022/11/11 11:11:13;;;;;;;;;13.00;11.67;;;;;12.79;64.41;102568.06;4991964;28;45428;-76
2022/11/11 11:13:44;;;;;;;;;12.33;12.33;;;;;12.52;64.28;102502.56;4969803;28;45465;-73
2022/11/11 11:16:17;;;;;;;;;12.00;12.00;;;;;13.51;64.09;102648.16;4976363;28;45293;-76
2022/11/11 11:18:43;;;;;;;;;10.33;10.00;;;;;13.55;63.16;102646.94;4976991;28;46134;-76
2022/11/11 11:21:09;;;;;;;;;15.67;13.00;;;;;13.51;63.26;102634.81;4993666;28;45361;-75
2022/11/11 11:23:40;;;;;;;;;13.00;13.00;;;;;13.54;63.47;102639.91;4977091;28;45233;-75
2022/11/11 11:26:07;;;;;;;;;14.67;13.67;;;;;13.60;63.51;102636.75;4980168;28;45599;-77
2022/11/11 11:28:33;;;;;;;;;13.00;11.67;;;;;13.58;63.76;102619.13;4993515;28;47612;-74
2022/11/11 11:31:04;;;;;;;;;14.33;14.00;;;;;13.69;63.14;102641.41;4980406;28;45274;-75
2022/11/11 11:33:50;;;;;;;;;14.67;12.00;;;;;13.70;63.01;102640.44;4976354;28;45258;-76
2022/11/11 11:36:17;;;;;;;;;14.00;13.67;;;;;13.73;63.25;102627.81;4975152;28;45596;-74
2022/11/11 11:38:59;;;;;;;;;;;;;;;;;;;;;
2022/11/11 11:41:50;;;;;;;;;16.33;14.00;;;;;13.24;62.64;102519.38;4978552;28;72836;-76
2022/11/11 11:44:30;;;;;;;;;13.00;13.00;;;;;13.94;62.42;102624.31;4965057;28;45374;-75
2022/11/11 11:47:22;;;;;;;;;15.67;11.00;;;;;13.79;62.68;102605.94;4958238;28;45528;-75
2022/11/11 11:50:16;;;;;;;;;16.33;13.67;;;;;13.97;62.69;102609.84;4976098;28;45799;-76
2022/11/11 11:52:56;;;;;;;;;15.33;14.00;;;;;14.03;62.60;102609.38;4976262;28;45472;-75
2022/11/11 11:55:26;;;;;;;;;17.00;16.00;;;;;14.04;61.99;102604.88;4977798;28;45425;-73
2022/11/11 11:57:52;;;;;;;;;16.33;16.33;;;;;14.08;62.31;102601.00;4990889;28;45580;-74
2022/11/11 12:00:28;;;;;;;;;17.67;14.33;;;;;14.01;62.23;102600.59;4978677;28;46171;-72
2022/11/11 12:02:56;;;;;;;;;20.00;19.00;;;;;13.94;62.06;102602.06;4971938;28;45623;-72
2022/11/11 12:05:24;;;;;;;;;15.00;15.00;;;;;13.95;62.59;102598.41;4999430;28;46371;-76
2022/11/11 12:08:07;;;;;;;;;20.33;20.00;;;;;13.02;62.80;102442.72;4984288;28;45349;-73
2022/11/11 12:10:51;;;;;;;;;17.00;17.00;;;;;13.93;62.65;102598.53;4980887;28;46610;-73
2022/11/11 12:13:37;;;;;;;;;14.67;14.67;;;;;13.96;62.76;102598.28;4980088;28;45396;-75
2022/11/11 12:16:19;;;;;;;;;14.00;13.67;;;;;13.95;62.61;102603.78;4980634;28;45336;-75
2022/11/11 12:18:44;;;;;;;;;10.33;10.00;;;;;13.82;62.66;102600.38;4977587;28;45692;-77
2022/11/11 12:21:15;;;;;;;;;19.33;16.33;;;;;12.96;63.04;102484.06;4978997;28;47868;-73
2022/11/11 12:23:53;;;;;;;;;15.67;15.67;;;;;13.65;63.44;102594.50;4992406;28;45491;-73
2022/11/11 12:26:59;;;;;;;;;19.33;17.00;;;;;13.54;63.30;102570.44;4978171;28;45696;-73
2022/11/11 12:29:46;;;;;;;;;16.67;15.67;;;;;13.24;63.05;102528.25;4942471;28;45458;-74
2022/11/11 12:32:17;;;;;;;;;13.67;13.00;;;;;13.63;63.62;102584.91;4982297;28;46101;-74
2022/11/11 12:34:54;;;;;;;;;15.00;13.67;;;;;13.48;63.84;102549.53;4998846;28;45498;-73